Time;durP1;ratioP1;P1;durP2;ratioP2;P2;SDS_P1;SDS_P2;PMS_P1;PMS_P2;Temp;Humidity;BMP_temperature;BMP_pressure;BME280_temperature;BME280_humidity;BME280_pressure;Samples;Min_cycle;Max_cycle;Signal;HPM_P1;HPM_P2
2022/04/25 00:00:07;;;;;;;13.47;12.07;;;;;;;6.72;95.86;99131.25;5080375;28;20184;-58
2022/04/25 00:02:32;;;;;;;15.80;12.10;;;;;;;6.80;96.64;99126.56;5108437;28;20171;-57
2022/04/25 00:04:58;;;;;;;13.33;11.93;;;;;;;6.84;96.31;99130.59;5094096;28;20595;-57
2022/04/25 00:07:23;;;;;;;13.70;12.30;;;;;;;6.68;96.97;99129.78;5093975;28;20189;-58
2022/04/25 00:09:49;;;;;;;13.73;12.33;;;;;;;6.66;98.82;99129.88;5093551;28;20266;-57
2022/04/25 00:12:15;;;;;;;14.67;12.67;;;;;;;6.73;99.24;99132.91;5099203;28;20731;-57
2022/04/25 00:14:40;;;;;;;13.23;11.93;;;;;;;6.81;98.94;99133.31;5093470;28;20189;-59
2022/04/25 00:17:05;;;;;;;12.93;11.73;;;;;;;6.81;98.65;99128.22;5093522;28;20248;-59
2022/04/25 00:19:31;;;;;;;13.30;11.90;;;;;;;6.99;98.46;99123.00;5093081;28;20189;-58
2022/04/25 00:21:56;;;;;;;13.90;12.33;;;;;;;7.06;97.89;99131.97;5098319;28;20329;-58
2022/04/25 00:24:21;;;;;;;16.27;12.47;;;;;;;7.04;97.46;99129.47;5094334;28;20174;-57
2022/04/25 00:26:47;;;;;;;13.87;12.53;;;;;;;7.03;96.95;99127.88;5093398;28;20187;-59
2022/04/25 00:29:13;;;;;;;13.80;12.40;;;;;;;7.15;97.23;99133.19;5120123;27;20597;-58
2022/04/25 00:31:40;;;;;;;13.37;12.07;;;;;;;7.27;96.74;99137.63;5085176;27;20274;-58
2022/04/25 00:34:05;;;;;;;13.37;12.07;;;;;;;7.32;96.24;99127.13;5070987;28;20226;-58
2022/04/25 00:36:31;;;;;;;12.57;11.43;;;;;;;7.31;95.97;99126.31;5072830;28;20234;-59
2022/04/25 00:38:56;;;;;;;12.83;11.63;;;;;;;7.45;95.40;99134.94;5072570;28;20540;-58
2022/04/25 00:41:21;;;;;;;14.07;12.73;;;;;;;7.46;95.29;99126.34;5073128;28;20316;-58
2022/04/25 00:43:47;;;;;;;13.73;12.33;;;;;;;7.56;94.67;99132.56;5078089;28;20276;-57
2022/04/25 00:46:20;;;;;;;13.37;12.07;;;;;;;7.36;95.06;99118.38;5072684;28;20538;-58
2022/04/25 00:48:46;;;;;;;13.50;12.10;;;;;;;7.11;96.80;99112.09;5071322;28;20195;-59
2022/04/25 00:51:12;;;;;;;12.27;11.07;;;;;;;7.10;98.66;99113.00;5064020;28;20215;-58
2022/04/25 00:53:37;;;;;;;13.13;11.80;;;;;;;7.34;98.96;99115.06;5071292;28;20269;-58
2022/04/25 00:56:03;;;;;;;13.77;12.37;;;;;;;7.38;97.95;99124.22;5071330;28;20659;-58
2022/04/25 00:58:28;;;;;;;13.60;11.20;;;;;;;7.46;97.36;99113.56;5077748;28;20224;-57
2022/04/25 01:00:53;;;;;;;12.97;11.67;;;;;;;7.34;97.54;99110.75;5088563;28;20291;-57
2022/04/25 01:03:18;;;;;;;13.07;11.63;;;;;;;7.30;98.26;99108.50;5101788;28;20190;-57
2022/04/25 01:05:44;;;;;;;13.33;11.93;;;;;;;7.16;98.41;99107.53;5092096;28;20175;-58
2022/04/25 01:08:09;;;;;;;13.90;12.57;;;;;;;7.23;99.19;99103.72;5092682;28;20218;-58
2022/04/25 01:10:34;;;;;;;13.83;12.43;;;;;;;7.18;99.04;99095.50;5086104;28;20230;-58
2022/04/25 01:13:00;;;;;;;13.77;12.30;;;;;;;7.25;99.38;99095.94;5103975;28;20538;-58
2022/04/25 01:15:28;;;;;;;14.20;11.93;;;;;;;7.19;99.08;99091.19;5090967;28;20176;-59
2022/04/25 01:17:54;;;;;;;13.00;11.60;;;;;;;7.20;99.09;99096.22;5092464;28;20533;-57
2022/04/25 01:20:19;;;;;;;14.60;13.07;;;;;;;7.22;98.91;99089.28;5083952;28;20172;-57
2022/04/25 01:22:53;;;;;;;13.20;11.90;;;;;;;7.20;98.77;99095.41;5105455;28;20206;-58
2022/04/25 01:28:04;;;;;;;12.87;11.50;;;;;;;7.51;96.90;99103.88;5085364;28;20286;-58
2022/04/25 01:30:31;;;;;;;13.10;11.80;;;;;;;7.64;95.40;99102.25;5060200;28;20314;-57
2022/04/25 01:32:57;;;;;;;13.60;12.20;;;;;;;7.63;94.48;99105.72;5059886;28;20204;-58
2022/04/25 01:35:23;;;;;;;12.43;11.10;;;;;;;7.62;94.66;99108.38;5070522;28;20180;-56
2022/04/25 01:37:48;;;;;;;14.10;12.70;;;;;;;7.57;94.61;99106.09;5071811;28;20592;-56
2022/04/25 01:40:14;;;;;;;14.47;13.00;;;;;;;7.47;94.70;99102.38;5062351;28;20658;-57
2022/04/25 01:42:39;;;;;;;13.97;12.57;;;;;;;7.17;96.96;99111.75;5085354;28;20567;-58
2022/04/25 01:45:05;;;;;;;14.90;13.40;;;;;;;6.95;99.70;99114.66;5071913;28;20275;-58
2022/04/25 01:47:30;;;;;;;15.13;13.57;;;;;;;6.95;100.00;99118.03;5070584;28;20314;-57
2022/04/25 01:49:55;;;;;;;13.73;12.37;;;;;;;6.82;100.00;99114.50;5069913;28;20583;-59
2022/04/25 01:52:27;;;;;;;16.73;13.00;;;;;;;6.66;100.00;99117.09;5077116;28;20233;-58
2022/04/25 01:54:52;;;;;;;15.83;12.80;;;;;;;6.74;100.00;99116.66;5070239;28;20221;-58
2022/04/25 01:57:18;;;;;;;14.40;12.90;;;;;;;6.75;100.00;99126.00;5072984;28;20296;-58
2022/04/25 01:59:44;;;;;;;15.57;13.57;;;;;;;6.68;100.00;99133.16;5085523;28;20182;-58
2022/04/25 02:02:11;;;;;;;16.83;13.67;;;;;;;6.67;100.00;99130.69;5082492;28;20281;-58
2022/04/25 02:04:36;;;;;;;14.90;13.07;;;;;;;6.59;100.00;99133.66;5090321;28;20554;-57
2022/04/25 02:07:02;;;;;;;15.03;13.50;;;;;;;6.54;100.00;99131.34;5091743;28;20183;-58
2022/04/25 02:09:27;;;;;;;14.60;13.03;;;;;;;6.54;100.00;99135.63;5091242;28;20172;-59
2022/04/25 02:11:53;;;;;;;15.30;13.67;;;;;;;6.49;100.00;99140.16;5080072;28;20323;-58
2022/04/25 02:14:18;;;;;;;15.67;13.20;;;;;;;6.38;100.00;99150.94;5072777;28;20188;-58
2022/04/25 02:16:44;;;;;;;13.77;12.37;;;;;;;6.17;100.00;99145.22;5071341;28;20208;-58
2022/04/25 02:19:10;;;;;;;13.60;12.30;;;;;;;6.08;100.00;99144.78;5073306;28;20176;-57
2022/04/25 02:21:35;;;;;;;15.17;13.40;;;;;;;6.05;100.00;99152.59;5090281;28;20305;-57
2022/04/25 02:24:00;;;;;;;15.03;13.43;;;;;;;6.01;100.00;99148.56;5099502;28;20566;-59
2022/04/25 02:26:26;;;;;;;14.67;12.97;;;;;;;5.89;100.00;99157.66;5082216;28;20322;-59
2022/04/25 02:28:54;;;;;;;14.37;12.90;;;;;;;5.84;100.00;99151.91;5071933;28;20523;-61
2022/04/25 02:31:20;;;;;;;15.03;13.53;;;;;;;5.88;100.00;99156.00;5074978;28;20233;-58
2022/04/25 02:33:46;;;;;;;14.73;13.20;;;;;;;5.81;100.00;99155.44;5074144;28;20260;-59
2022/04/25 02:36:12;;;;;;;13.77;12.37;;;;;;;5.85;100.00;99158.69;5075280;28;20215;-58
2022/04/25 02:38:39;;;;;;;15.87;13.57;;;;;;;5.94;100.00;99160.78;5075070;28;20169;-58
2022/04/25 02:41:05;;;;;;;14.90;13.40;;;;;;;5.90;100.00;99161.81;5066194;28;20318;-58
2022/04/25 02:43:36;;;;;;;14.57;13.07;;;;;;;5.81;100.00;99163.09;5074098;28;20208;-58
2022/04/25 02:46:03;;;;;;;15.17;13.67;;;;;;;5.81;100.00;99164.84;5073818;28;20188;-58
2022/04/25 02:48:30;;;;;;;15.53;14.03;;;;;;;5.72;100.00;99170.38;5073526;28;20177;-58
2022/04/25 02:50:57;;;;;;;14.57;13.10;;;;;;;5.65;100.00;99165.59;5065884;28;20237;-58
2022/04/25 02:53:24;;;;;;;15.57;13.97;;;;;;;5.64;100.00;99163.97;5073388;28;20250;-57
2022/04/25 02:55:53;;;;;;;14.53;13.13;;;;;;;5.72;100.00;99160.19;5073423;28;20516;-57
2022/04/25 02:58:22;;;;;;;15.30;13.80;;;;;;;5.86;100.00;99162.88;5077797;28;20173;-58
2022/04/25 03:00:48;;;;;;;14.70;13.27;;;;;;;5.94;100.00;99159.94;5063155;28;20718;-58
2022/04/25 03:03:15;;;;;;;16.13;14.27;;;;;;;6.01;100.00;99163.88;5063054;28;20215;-57
2022/04/25 03:05:43;;;;;;;15.53;13.40;;;;;;;6.05;100.00;99178.13;5073414;28;20280;-59
2022/04/25 03:08:10;;;;;;;14.43;12.90;;;;;;;6.02;100.00;99174.94;5073324;28;20180;-58
2022/04/25 03:10:36;;;;;;;15.47;13.87;;;;;;;6.05;100.00;99170.47;5067500;28;20293;-58
2022/04/25 03:13:03;;;;;;;16.00;14.40;;;;;;;6.09;100.00;99173.69;5094060;28;20221;-59
2022/04/25 03:15:29;;;;;;;15.30;13.70;;;;;;;6.17;100.00;99180.97;5086399;28;20681;-58
2022/04/25 03:17:54;;;;;;;14.37;13.07;;;;;;;6.22;100.00;99179.00;5107001;28;20268;-59
2022/04/25 03:20:19;;;;;;;14.73;13.30;;;;;;;6.24;100.00;99183.13;5086043;28;20272;-58
2022/04/25 03:22:44;;;;;;;15.40;13.80;;;;;;;6.14;100.00;99181.97;5090853;28;20540;-58
2022/04/25 03:25:10;;;;;;;17.20;15.40;;;;;;;5.98;100.00;99179.31;5074731;28;20181;-58
2022/04/25 03:27:35;;;;;;;15.67;14.07;;;;;;;5.85;100.00;99179.09;5071648;28;20200;-56
2022/04/25 03:30:00;;;;;;;15.63;13.93;;;;;;;5.86;100.00;99180.75;5072156;28;20196;-58
2022/04/25 03:32:26;;;;;;;15.93;13.70;;;;;;;5.76;100.00;99180.38;5036857;28;20366;-58
2022/04/25 03:34:52;;;;;;;16.00;14.37;;;;;;;5.79;100.00;99187.91;5074010;28;20607;-58
2022/04/25 03:37:17;;;;;;;17.30;15.50;;;;;;;5.71;100.00;99182.34;5073838;28;20200;-57
2022/04/25 03:39:42;;;;;;;15.70;14.17;;;;;;;5.85;100.00;99183.38;5073742;28;20181;-57
2022/04/25 03:42:07;;;;;;;16.17;14.53;;;;;;;5.95;100.00;99182.03;5079713;28;20699;-58
2022/04/25 03:44:33;;;;;;;19.00;15.90;;;;;;;6.06;100.00;99187.44;5072452;28;20233;-57
2022/04/25 03:46:58;;;;;;;16.93;14.93;;;;;;;6.27;100.00;99180.41;5074091;28;20173;-57
2022/04/25 03:49:23;;;;;;;16.17;14.57;;;;;;;6.40;100.00;99182.31;5073334;28;20260;-58
2022/04/25 03:51:49;;;;;;;17.27;15.50;;;;;;;6.35;100.00;99182.59;5077487;28;20224;-58
2022/04/25 03:57:09;;;;;;;17.20;15.47;;;;;;;6.42;100.00;99177.97;5075506;28;20245;-58
2022/04/25 03:57:12;;;;;;;18.13;16.23;;;;;;;6.36;100.00;99184.22;5058353;28;20310;-58
2022/04/25 03:59:37;;;;;;;16.03;14.43;;;;;;;6.18;100.00;99177.50;5073553;28;20300;-59
2022/04/25 04:02:04;;;;;;;17.43;15.53;;;;;;;6.34;100.00;99188.59;5078687;28;20259;-59
2022/04/25 04:04:30;;;;;;;16.87;15.07;;;;;;;6.45;100.00;99185.50;5072031;28;20173;-59
2022/04/25 04:06:55;;;;;;;17.70;15.90;;;;;;;6.28;100.00;99192.28;5073900;28;20234;-58
2022/04/25 04:12:04;;;;;;;16.37;14.67;;;;;;;6.20;100.00;99194.41;5079031;28;20665;-58
2022/04/25 04:14:30;;;;;;;19.43;15.83;;;;;;;6.22;100.00;99199.44;5073340;28;20186;-58
2022/04/25 04:16:56;;;;;;;18.17;15.93;;;;;;;5.95;100.00;99187.97;5072102;28;20259;-60
2022/04/25 04:19:21;;;;;;;18.60;16.33;;;;;;;5.79;100.00;99187.06;5072895;28;20173;-58
2022/04/25 04:21:46;;;;;;;18.27;16.43;;;;;;;5.81;100.00;99192.91;5062477;28;20220;-58
2022/04/25 04:24:11;;;;;;;18.53;16.73;;;;;;;5.80;100.00;99204.88;5084173;28;20178;-58
2022/04/25 04:26:37;;;;;;;18.40;16.63;;;;;;;5.90;100.00;99204.41;5073011;28;20553;-58
2022/04/25 04:29:02;;;;;;;17.47;15.70;;;;;;;6.03;100.00;99213.13;5072766;28;20284;-58
2022/04/25 04:31:27;;;;;;;17.70;15.80;;;;;;;6.12;100.00;99211.84;5073965;28;20241;-58
2022/04/25 04:33:52;;;;;;;17.93;15.90;;;;;;;6.16;100.00;99226.09;5078023;28;20177;-58
2022/04/25 04:36:18;;;;;;;17.50;15.67;;;;;;;6.05;100.00;99228.38;5073356;28;20185;-58
2022/04/25 04:38:47;;;;;;;17.63;15.47;;;;;;;6.19;100.00;99235.34;5073025;28;20260;-57
2022/04/25 04:41:12;;;;;;;17.83;16.03;;;;;;;6.17;100.00;99242.25;5070867;28;20607;-58
2022/04/25 04:43:38;;;;;;;18.50;16.50;;;;;;;6.20;100.00;99235.28;5066592;28;20189;-58
2022/04/25 04:46:03;;;;;;;17.90;16.03;;;;;;;6.15;100.00;99237.22;5052830;28;20691;-58
2022/04/25 04:48:28;;;;;;;17.37;15.53;;;;;;;6.31;100.00;99234.72;5052862;28;20620;-60
2022/04/25 04:50:55;;;;;;;17.70;15.83;;;;;;;6.40;100.00;99243.63;5056154;28;20215;-58
2022/04/25 04:53:22;;;;;;;17.43;15.63;;;;;;;6.56;100.00;99248.78;5070480;28;20675;-59
2022/04/25 04:55:47;;;;;;;17.03;15.23;;;;;;;6.72;100.00;99247.09;5051335;28;20238;-58
2022/04/25 04:58:13;;;;;;;16.53;14.87;;;;;;;6.76;100.00;99261.38;5089717;28;20621;-58
2022/04/25 05:00:39;;;;;;;17.57;15.80;;;;;;;7.00;100.00;99268.66;5086451;28;20219;-57
2022/04/25 05:03:04;;;;;;;15.40;13.70;;;;;;;7.09;100.00;99265.63;5103708;28;20646;-57
2022/04/25 05:05:30;;;;;;;16.23;14.53;;;;;;;7.31;100.00;99269.56;5092866;28;20219;-58
2022/04/25 05:07:55;;;;;;;15.43;13.93;;;;;;;7.57;100.00;99270.69;5092829;28;20541;-58
2022/04/25 05:10:20;;;;;;;16.07;14.33;;;;;;;7.73;100.00;99270.66;5084205;28;20800;-58
2022/04/25 05:12:49;;;;;;;16.23;14.40;;;;;;;7.82;99.28;99269.31;5105595;28;20185;-58
2022/04/25 05:15:15;;;;;;;16.10;14.40;;;;;;;7.92;98.81;99264.50;5091227;28;20174;-57
2022/04/25 05:17:44;;;;;;;16.10;14.30;;;;;;;7.98;97.88;99268.47;5091156;28;20251;-58
2022/04/25 05:20:11;;;;;;;15.63;14.03;;;;;;;8.05;97.36;99267.19;5041004;28;20190;-58
2022/04/25 05:22:44;;;;;;;14.00;12.60;;;;;;;8.30;96.54;99264.03;5077298;28;20200;-57
2022/04/25 05:25:10;;;;;;;14.70;13.20;;;;;;;8.36;96.16;99271.38;5052181;28;20310;-57
2022/04/25 05:27:35;;;;;;;15.53;13.23;;;;;;;8.35;95.78;99279.97;5058791;28;20650;-57
2022/04/25 05:30:01;;;;;;;15.97;13.70;;;;;;;8.34;96.35;99270.63;5071366;28;20540;-58
2022/04/25 05:32:26;;;;;;;15.73;14.13;;;;;;;8.03;97.50;99269.84;5077454;28;20228;-58
2022/04/25 05:34:51;;;;;;;16.00;14.33;;;;;;;7.64;100.00;99260.94;5071515;28;20168;-59
2022/04/25 05:37:16;;;;;;;15.63;14.20;;;;;;;7.38;100.00;99262.38;5053742;28;20216;-59
2022/04/25 05:39:42;;;;;;;17.73;15.50;;;;;;;7.30;100.00;99267.91;5051671;28;20238;-59
2022/04/25 05:42:07;;;;;;;16.93;15.40;;;;;;;7.24;100.00;99269.09;5059761;28;20227;-60
2022/04/25 05:44:33;;;;;;;17.50;15.70;;;;;;;7.31;100.00;99266.19;5070472;28;20266;-59
2022/04/25 05:46:58;;;;;;;18.93;15.17;;;;;;;7.40;100.00;99266.50;5069646;28;20609;-61
2022/04/25 05:52:08;;;;;;;18.47;16.57;;;;;;;7.46;100.00;99265.34;5076468;28;20230;-59
2022/04/25 05:54:34;;;;;;;18.80;16.90;;;;;;;7.56;100.00;99266.47;5069256;28;20218;-59
2022/04/25 05:57:00;;;;;;;19.53;17.33;;;;;;;7.57;100.00;99275.00;5068893;28;21550;-60
2022/04/25 05:59:25;;;;;;;18.03;16.17;;;;;;;7.49;100.00;99280.53;5056023;28;20309;-59
2022/04/25 06:01:53;;;;;;;20.73;18.63;;;;;;;7.53;100.00;99282.00;5054909;28;20250;-59
2022/04/25 06:04:19;;;;;;;18.77;16.83;;;;;;;7.71;100.00;99280.16;5067614;28;20177;-59
2022/04/25 06:06:44;;;;;;;21.87;19.60;;;;;;;7.74;100.00;99282.56;5050746;28;20188;-59
2022/04/25 06:09:09;;;;;;;20.10;18.10;;;;;;;7.96;100.00;99285.63;5053777;28;20196;-59
2022/04/25 06:11:34;;;;;;;19.70;17.60;;;;;;;8.24;100.00;99292.56;5066055;28;20233;-59
2022/04/25 06:14:02;;;;;;;20.70;18.60;;;;;;;8.53;100.00;99297.75;5056802;28;20191;-57
2022/04/25 06:16:27;;;;;;;21.87;19.63;;;;;;;8.70;100.00;99292.47;5056552;28;20199;-56
2022/04/25 06:18:52;;;;;;;21.90;19.63;;;;;;;8.92;100.00;99303.16;5055087;28;20211;-56
2022/04/25 06:21:18;;;;;;;20.97;18.87;;;;;;;9.04;100.00;99300.69;5069625;28;20223;-57
2022/04/25 06:23:43;;;;;;;20.23;18.00;;;;;;;9.22;100.00;99305.59;5073619;28;20636;-57
2022/04/25 06:26:08;;;;;;;20.17;17.90;;;;;;;9.58;100.00;99306.81;5052460;28;20580;-56
2022/04/25 06:28:34;;;;;;;20.30;17.37;;;;;;;9.92;100.00;99308.97;5059064;28;20643;-57
2022/04/25 06:30:59;;;;;;;20.17;18.17;;;;;;;10.12;96.18;99308.50;5053166;28;20224;-56
2022/04/25 06:33:25;;;;;;;19.77;17.70;;;;;;;10.23;93.32;99309.53;5061832;28;20200;-56
2022/04/25 06:35:51;;;;;;;20.43;18.33;;;;;;;10.15;90.75;99315.19;5053470;28;20204;-56
2022/04/25 06:38:18;;;;;;;20.37;18.27;;;;;;;10.23;91.42;99325.75;5056248;28;20197;-58
2022/04/25 06:40:46;;;;;;;18.87;16.83;;;;;;;10.41;90.89;99323.78;5047816;28;20228;-56
2022/04/25 06:43:13;;;;;;;19.80;17.73;;;;;;;10.24;90.55;99321.47;5061156;28;20185;-59
2022/04/25 06:45:39;;;;;;;19.03;17.07;;;;;;;10.49;91.23;99325.81;5049654;28;20181;-58
2022/04/25 06:48:04;;;;;;;19.77;17.73;;;;;;;10.79;89.19;99330.69;5050943;28;20187;-58
2022/04/25 06:50:29;;;;;;;21.17;16.90;;;;;;;11.14;88.03;99330.00;5042081;28;20221;-58
2022/04/25 06:52:55;;;;;;;22.47;17.60;;;;;;;11.48;83.42;99333.72;5062811;28;20202;-59
2022/04/25 06:55:20;;;;;;;17.27;15.47;;;;;;;12.02;80.40;99327.31;5051133;28;20636;-59
2022/04/25 06:57:47;;;;;;;17.10;15.30;;;;;;;12.37;77.78;99337.63;5052391;28;20310;-59
2022/04/25 07:00:17;;;;;;;16.97;15.23;;;;;;;12.62;76.50;99324.66;5030901;28;20280;-58
2022/04/25 07:02:44;;;;;;;15.10;13.60;;;;;;;13.57;67.26;99326.84;5057376;28;20260;-60
2022/04/25 07:05:09;;;;;;;15.40;13.80;;;;;;;13.00;69.62;99321.72;5052032;28;20196;-58
2022/04/25 07:07:34;;;;;;;16.67;14.97;;;;;;;12.55;70.96;99337.19;5041565;28;20186;-60
2022/04/25 07:09:59;;;;;;;16.40;14.50;;;;;;;12.04;74.17;99341.75;5033713;28;20174;-58
2022/04/25 07:12:27;;;;;;;16.80;15.20;;;;;;;12.10;73.59;99341.28;5042626;28;20256;-57
2022/04/25 07:14:52;;;;;;;16.17;14.67;;;;;;;12.00;76.32;99348.06;5068478;28;20173;-59
2022/04/25 07:17:17;;;;;;;16.07;14.57;;;;;;;11.77;75.90;99347.09;5068658;28;20231;-60
2022/04/25 07:19:43;;;;;;;17.30;15.50;;;;;;;11.26;77.70;99348.09;5070040;28;20179;-59
2022/04/25 07:30:21;;;;;;;18.57;14.83;;;;;;;11.62;76.16;99367.88;5037968;28;20251;-60
2022/04/25 07:32:46;;;;;;;17.33;14.77;;;;;;;11.76;74.46;99372.06;5070150;28;20700;-59
2022/04/25 07:35:11;;;;;;;16.37;14.70;;;;;;;11.17;76.54;99374.50;5055040;28;20186;-57
2022/04/25 07:37:37;;;;;;;16.87;15.20;;;;;;;11.19;77.97;99370.88;5068024;28;20211;-58
2022/04/25 07:40:03;;;;;;;16.97;15.37;;;;;;;11.21;79.08;99369.03;5081212;28;20193;-58
2022/04/25 07:42:29;;;;;;;16.30;14.70;;;;;;;11.49;79.10;99372.25;5049109;28;20264;-62
2022/04/25 07:44:55;;;;;;;16.67;14.73;;;;;;;11.36;77.63;99369.72;5052528;28;20266;-58
2022/04/25 07:47:20;;;;;;;16.03;14.53;;;;;;;11.52;76.82;99368.63;5087537;28;20211;-57
2022/04/25 07:49:46;;;;;;;16.50;14.83;;;;;;;12.02;74.19;99371.13;5062655;28;20193;-58
2022/04/25 07:52:11;;;;;;;17.80;15.37;;;;;;;12.18;73.43;99371.69;5058945;28;20303;-59
2022/04/25 07:54:36;;;;;;;16.47;14.87;;;;;;;12.34;71.37;99371.41;5053791;28;20645;-59
2022/04/25 07:57:03;;;;;;;16.27;14.17;;;;;;;12.97;69.36;99376.16;5058564;28;20199;-59
2022/04/25 07:59:29;;;;;;;17.00;14.30;;;;;;;13.42;68.18;99374.53;5071895;28;20189;-58
2022/04/25 08:01:54;;;;;;;15.13;13.70;;;;;;;13.26;66.97;99378.28;5065277;28;20231;-58
2022/04/25 08:04:20;;;;;;;17.07;14.37;;;;;;;13.98;66.12;99378.72;5091040;28;20570;-58
2022/04/25 08:06:45;;;;;;;15.77;14.27;;;;;;;15.31;58.75;99375.56;5094047;28;20533;-58
2022/04/25 08:09:10;;;;;;;16.80;15.20;;;;;;;16.37;51.93;99373.22;5093530;28;20411;-64
2022/04/25 08:11:35;;;;;;;14.67;13.17;;;;;;;15.04;56.63;99376.16;5083570;28;20234;-66
2022/04/25 08:19:31;;;;;;;13.63;12.33;;;;;;;17.38;48.75;99366.63;5074624;28;20187;-64
2022/04/25 08:21:57;;;;;;;12.23;11.13;;;;;;;16.78;49.97;99378.16;5079267;28;20302;-67
2022/04/25 08:24:23;;;;;;;13.37;11.40;;;;;;;17.08;48.76;99378.94;5059088;28;20181;-64
2022/04/25 08:26:48;;;;;;;12.53;11.33;;;;;;;16.78;50.36;99379.00;5066408;28;20271;-63
2022/04/25 08:29:13;;;;;;;11.83;10.63;;;;;;;17.06;48.16;99375.66;5069894;28;20268;-63
2022/04/25 08:31:39;;;;;;;12.93;11.37;;;;;;;17.03;47.74;99368.97;5063750;28;20665;-62
2022/04/25 08:34:06;;;;;;;13.87;12.47;;;;;;;18.61;44.51;99373.88;5052922;28;20403;-63
2022/04/25 08:36:32;;;;;;;13.17;12.00;;;;;;;18.85;43.33;99383.59;5068113;28;20205;-64
2022/04/25 08:38:58;;;;;;;12.27;11.03;;;;;;;18.96;43.27;99372.13;5093214;28;20196;-64
2022/04/25 08:41:39;;;;;;;12.00;10.80;;;;;;;17.38;46.27;99382.22;5077992;28;20227;-63
2022/04/25 08:44:05;;;;;;;12.57;11.13;;;;;;;16.51;48.60;99384.94;5078105;28;20192;-61
2022/04/25 08:46:34;;;;;;;11.77;10.77;;;;;;;16.36;49.63;99384.56;5074216;28;20173;-63
2022/04/25 08:49:03;;;;;;;11.73;10.63;;;;;;;16.15;49.92;99382.13;5074065;28;20202;-65
2022/04/25 08:51:30;;;;;;;11.27;10.27;;;;;;;16.76;47.96;99385.31;5074134;28;20272;-64
2022/04/25 08:53:56;;;;;;;12.43;9.57;;;;;;;17.36;46.09;99392.72;5077054;28;20200;-63
2022/04/25 08:56:25;;;;;;;11.03;10.03;;;;;;;18.79;42.23;99386.81;5071967;28;20292;-63
2022/04/25 08:58:52;;;;;;;12.00;9.50;;;;;;;18.19;43.24;99393.56;5070964;28;20191;-66
2022/04/25 09:01:17;;;;;;;9.70;8.90;;;;;;;18.66;42.65;99392.44;5071967;28;20215;-65
2022/04/25 09:03:42;;;;;;;10.03;8.77;;;;;;;18.29;42.99;99391.69;5078005;28;20196;-62
2022/04/25 09:06:09;;;;;;;11.13;10.00;;;;;;;18.80;43.07;99391.06;5069761;28;20177;-63
2022/04/25 09:08:35;;;;;;;11.15;10.15;;;;;;;20.15;39.78;99391.16;5071543;28;20536;-57
2022/04/25 09:13:45;;;;;;;10.77;9.67;;;;;;;19.17;41.90;99393.38;5075702;28;20194;-58
2022/04/25 09:16:17;;;;;;;11.23;10.03;;;;;;;19.80;40.89;99399.09;5070289;28;20204;-58
2022/04/25 09:18:43;;;;;;;11.77;10.63;;;;;;;18.56;41.60;99405.56;5071492;28;20260;-56
2022/04/25 09:21:13;;;;;;;13.40;12.10;;;;;;;17.03;46.43;99400.16;5063159;28;20234;-56
2022/04/25 09:23:38;;;;;;;13.10;11.93;;;;;;;18.79;42.87;99403.28;5070405;28;20185;-57
2022/04/25 09:26:07;;;;;;;9.97;9.07;;;;;;;20.23;38.06;99392.94;5071908;28;20181;-57
2022/04/25 09:28:34;;;;;;;9.17;8.47;;;;;;;21.16;38.14;99399.50;5071834;28;20176;-58
2022/04/25 09:31:01;;;;;;;8.63;7.83;;;;;;;20.31;36.84;99399.00;5062716;28;20235;-57
2022/04/25 09:33:27;;;;;;;9.07;7.77;;;;;;;21.79;34.56;99390.84;5079553;28;20193;-59
2022/04/25 09:35:54;;;;;;;10.33;9.33;;;;;;;22.49;33.23;99395.06;5071873;28;20749;-57
2022/04/25 09:38:29;;;;;;;10.83;9.83;;;;;;;19.09;40.02;99403.78;5090854;28;20519;-57
2022/04/25 09:40:55;;;;;;;12.13;10.13;;;;;;;18.75;41.78;99407.13;5083039;28;20275;-57
2022/04/25 09:43:22;;;;;;;11.37;10.37;;;;;;;18.53;42.91;99409.28;5101094;28;20530;-57
2022/04/25 09:45:59;;;;;;;11.43;10.40;;;;;;;17.17;45.10;99409.25;5090378;28;20486;-57
2022/04/25 09:48:25;;;;;;;10.67;9.63;;;;;;;16.90;45.87;99410.00;5090861;28;20274;-57
2022/04/25 09:51:02;;;;;;;11.83;10.73;;;;;;;16.68;47.50;99406.75;5086975;28;20310;-58
2022/04/25 09:53:50;;;;;;;11.20;10.03;;;;;;;17.00;46.12;99407.41;5091055;28;20199;-58
2022/04/25 09:56:24;;;;;;;13.80;9.93;;;;;;;16.34;47.05;99417.63;5090419;28;20236;-58
2022/04/25 09:59:04;;;;;;;11.30;10.30;;;;;;;16.23;47.62;99413.38;5087874;28;20211;-58
2022/04/25 10:01:31;;;;;;;9.90;8.90;;;;;;;16.27;47.43;99417.34;5083145;28;20260;-58
2022/04/25 10:03:56;;;;;;;12.57;10.60;;;;;;;16.51;47.29;99412.66;5090520;28;20634;-57
2022/04/25 10:06:23;;;;;;;11.17;10.17;;;;;;;16.83;46.51;99408.91;5085230;28;20169;-57
2022/04/25 10:08:49;;;;;;;10.60;9.40;;;;;;;17.22;45.23;99417.44;5068365;28;20176;-58
2022/04/25 10:11:18;;;;;;;10.63;9.73;;;;;;;18.20;43.88;99416.03;5068054;28;20223;-57
2022/04/25 10:13:46;;;;;;;10.43;9.03;;;;;;;19.05;40.71;99419.88;5070241;28;20165;-58
2022/04/25 10:16:12;;;;;;;10.30;8.27;;;;;;;17.43;43.77;99414.59;5069989;28;20196;-58
2022/04/25 10:18:38;;;;;;;9.50;8.40;;;;;;;16.33;46.26;99425.53;5071260;28;20178;-57
2022/04/25 10:21:07;;;;;;;9.57;8.77;;;;;;;15.53;48.81;99422.94;5068577;28;20250;-59
2022/04/25 10:23:33;;;;;;;9.97;9.10;;;;;;;15.40;49.02;99423.19;5078232;28;20321;-59
2022/04/25 10:25:59;;;;;;;9.97;8.57;;;;;;;15.39;50.31;99421.53;5071300;28;20259;-58
2022/04/25 10:28:34;;;;;;;10.43;9.40;;;;;;;15.43;49.11;99421.16;5069875;28;20188;-58
2022/04/25 10:31:07;;;;;;;8.53;7.73;;;;;;;15.06;49.75;99426.03;5079009;28;20234;-57
2022/04/25 10:33:56;;;;;;;8.47;7.60;;;;;;;15.03;49.03;99421.13;5070028;28;20188;-58
2022/04/25 10:36:39;;;;;;;8.27;7.43;;;;;;;14.91;49.65;99430.75;5071432;28;20254;-58
2022/04/25 10:39:25;;;;;;;8.70;7.43;;;;;;;14.56;51.58;99424.09;5051202;28;20188;-58
2022/04/25 10:44:37;;;;;;;9.10;8.23;;;;;;;14.58;53.41;99427.41;5054987;28;20246;-58
2022/04/25 10:47:05;;;;;;;8.53;7.70;;;;;;;15.14;51.69;99424.47;5055188;28;20599;-57
2022/04/25 10:49:35;;;;;;;9.47;8.00;;;;;;;15.68;49.84;99421.63;5054444;28;20232;-58
2022/04/25 10:52:01;;;;;;;8.67;7.87;;;;;;;16.13;48.74;99423.75;5043274;28;20244;-58
2022/04/25 10:54:28;;;;;;;7.63;6.57;;;;;;;17.05;45.98;99411.19;5053368;28;20586;-57
2022/04/25 10:57:13;;;;;;;7.57;6.87;;;;;;;16.63;45.01;99416.75;5056959;28;20696;-57
2022/04/25 10:59:39;;;;;;;7.50;6.90;;;;;;;17.41;43.38;99415.69;5073325;28;20176;-57
2022/04/25 11:02:39;;;;;;;7.60;6.90;;;;;;;17.46;43.16;99420.47;5053234;28;20609;-57
2022/04/25 11:05:10;;;;;;;7.47;6.80;;;;;;;17.24;43.05;99419.88;5052265;28;20543;-57
2022/04/25 11:07:37;;;;;;;8.20;7.30;;;;;;;16.81;43.75;99421.22;5051444;28;20221;-58
2022/04/25 11:10:03;;;;;;;7.43;6.73;;;;;;;16.71;44.15;99403.09;5046688;28;20263;-58
2022/04/25 11:12:57;;;;;;;9.30;7.00;;;;;;;16.96;45.38;99406.88;5033125;28;20204;-57
2022/04/25 11:15:45;;;;;;;7.80;6.80;;;;;;;16.88;44.40;99398.91;5039612;28;20285;-57
2022/04/25 11:18:36;;;;;;;7.50;6.83;;;;;;;17.48;43.38;99408.16;5025125;28;20209;-57
2022/04/25 11:21:07;;;;;;;6.63;6.03;;;;;;;17.11;43.54;99404.63;5016846;28;20237;-56
2022/04/25 11:23:47;;;;;;;8.03;6.53;;;;;;;16.75;43.71;99402.66;5015693;28;20488;-57
2022/04/25 11:26:22;;;;;;;9.07;6.07;;;;;;;16.34;45.59;99409.81;5026641;28;20209;-57
2022/04/25 11:28:58;;;;;;;8.03;6.40;;;;;;;16.28;44.29;99411.19;5032046;28;20196;-57
2022/04/25 11:31:28;;;;;;;8.70;7.90;;;;;;;16.59;43.72;99413.59;4985214;28;20233;-57
2022/04/25 11:33:56;;;;;;;7.50;6.80;;;;;;;16.37;45.12;99424.31;5030283;28;20181;-57
2022/04/25 11:36:23;;;;;;;7.00;6.30;;;;;;;16.97;44.35;99421.50;5035263;28;20276;-57
2022/04/25 11:41:38;;;;;;;9.00;7.90;;;;;;;16.12;47.00;99423.91;5056741;28;20267;-58
2022/04/25 11:44:07;;;;;;;6.80;6.20;;;;;;;16.36;44.20;99420.91;5053130;28;20246;-57
2022/04/25 11:46:34;;;;;;;7.30;6.60;;;;;;;16.45;43.24;99422.66;5052721;28;20181;-58
2022/04/25 11:49:00;;;;;;;6.47;5.87;;;;;;;16.94;43.42;99426.97;5052364;28;20184;-57
2022/04/25 11:51:29;;;;;;;6.90;6.30;;;;;;;17.02;43.57;99423.69;5054869;28;20240;-57